Time;durP1;ratioP1;P1;durP2;ratioP2;P2;SDS_P1;SDS_P2;PMS_P1;PMS_P2;Temp;Humidity;BMP_temperature;BMP_pressure;BME280_temperature;BME280_humidity;BME280_pressure;Samples;Min_cycle;Max_cycle;Signal;HPM_P1;HPM_P2
2023/01/24 00:01:17;;;;;;;1.20;0.60;;;10.00;83.80;;;;;;6215221;23;20493;-79
2023/01/24 00:03:43;;;;;;;0.95;0.63;;;10.00;83.50;;;;;;6215624;23;20072;-79
2023/01/24 00:06:09;;;;;;;0.75;0.50;;;10.00;83.50;;;;;;6215679;23;20001;-79
2023/01/24 00:08:35;;;;;;;0.70;0.50;;;;;;;;;;6215996;23;20003;-79
2023/01/24 00:11:06;;;;;;;0.75;0.65;;;10.00;82.90;;;;;;6215535;23;20035;-79
2023/01/24 00:13:33;;;;;;;1.40;0.85;;;10.00;83.30;;;;;;6216050;23;20004;-79
2023/01/24 00:16:03;;;;;;;0.60;0.50;;;10.00;83.20;;;;;;6215583;23;20054;-79
2023/01/24 00:18:28;;;;;;;0.80;0.75;;;10.10;83.20;;;;;;6215715;23;20598;-79
2023/01/24 00:21:12;;;;;;;1.10;0.65;;;10.10;83.30;;;;;;6215904;23;20489;-79
2023/01/24 00:23:40;;;;;;;0.95;0.55;;;10.00;83.20;;;;;;6215786;23;20011;-79
2023/01/24 00:26:06;;;;;;;0.80;0.52;;;10.10;83.30;;;;;;6215253;23;20000;-78
2023/01/24 00:28:31;;;;;;;0.52;0.43;;;10.00;83.30;;;;;;6215764;23;20008;-81
2023/01/24 00:30:57;;;;;;;2.17;0.60;;;10.00;83.10;;;;;;6215095;23;20322;-81
2023/01/24 00:33:23;;;;;;;0.40;0.40;;;10.00;83.20;;;;;;6216292;23;20367;-82
2023/01/24 00:35:52;;;;;;;0.55;0.43;;;9.90;83.10;;;;;;6188281;23;20092;-82
2023/01/24 00:38:20;;;;;;;0.50;0.35;;;10.00;83.30;;;;;;6215739;23;20019;-81
2023/01/24 00:40:46;;;;;;;0.90;0.40;;;10.00;83.40;;;;;;6215249;23;20001;-82
2023/01/24 00:43:12;;;;;;;0.40;0.40;;;10.00;83.40;;;;;;6215304;23;20055;-82
2023/01/24 00:45:39;;;;;;;0.90;0.50;;;10.00;82.80;;;;;;6215753;23;20009;-82
2023/01/24 00:48:06;;;;;;;0.80;0.50;;;10.00;83.00;;;;;;6215629;23;20055;-82
2023/01/24 00:50:32;;;;;;;0.40;0.40;;;9.90;82.80;;;;;;6215464;23;19997;-82
2023/01/24 00:52:58;;;;;;;1.02;0.60;;;10.00;82.90;;;;;;6215567;23;20315;-82
2023/01/24 00:55:24;;;;;;;0.60;0.50;;;10.00;82.90;;;;;;6216263;23;20004;-82
2023/01/24 00:57:49;;;;;;;2.85;0.65;;;9.90;82.80;;;;;;6215690;23;20027;-82
2023/01/24 01:00:15;;;;;;;1.10;0.52;;;10.00;82.90;;;;;;6216068;23;20028;-82
2023/01/24 01:02:41;;;;;;;0.68;0.50;;;10.00;82.90;;;;;;6215936;23;20000;-82
2023/01/24 01:05:07;;;;;;;1.20;0.68;;;10.00;83.00;;;;;;6215775;23;20008;-83
2023/01/24 01:07:33;;;;;;;1.02;0.50;;;10.00;83.10;;;;;;6215721;23;20055;-83
2023/01/24 01:09:59;;;;;;;0.65;0.47;;;;;;;;;;6189007;23;20001;-84
2023/01/24 01:12:25;;;;;;;1.02;0.65;;;10.00;82.80;;;;;;6215638;23;20004;-81
2023/01/24 01:14:51;;;;;;;1.00;0.57;;;10.00;83.30;;;;;;6215741;23;20001;-83
2023/01/24 01:17:17;;;;;;;0.80;0.50;;;10.00;83.20;;;;;;6215492;23;20079;-83
2023/01/24 01:19:42;;;;;;;0.47;0.40;;;10.00;83.30;;;;;;6216107;23;20112;-83
2023/01/24 01:22:08;;;;;;;0.57;0.40;;;10.00;83.30;;;;;;6215867;23;20084;-81
2023/01/24 01:24:34;;;;;;;0.50;0.40;;;10.00;83.50;;;;;;6189305;23;20032;-81
2023/01/24 01:27:00;;;;;;;0.80;0.50;;;10.00;83.70;;;;;;6215611;23;20079;-81
2023/01/24 01:29:26;;;;;;;1.30;0.73;;;10.00;83.60;;;;;;6215644;23;20453;-81
2023/01/24 01:31:52;;;;;;;0.65;0.60;;;10.00;83.60;;;;;;6215246;23;20008;-81
2023/01/24 01:34:18;;;;;;;0.73;0.47;;;10.00;83.50;;;;;;6214466;23;20008;-82
2023/01/24 01:36:43;;;;;;;1.00;0.60;;;10.00;83.60;;;;;;6215012;23;20479;-81
2023/01/24 01:39:09;;;;;;;0.90;0.60;;;10.00;83.70;;;;;;6214800;23;20044;-81
2023/01/24 01:41:35;;;;;;;0.90;0.60;;;10.00;83.70;;;;;;6214878;23;20000;-81
2023/01/24 01:44:40;;;;;;;0.70;0.47;;;10.00;83.70;;;;;;6214038;23;20005;-81
2023/01/24 01:47:18;;;;;;;0.50;0.50;;;10.00;83.60;;;;;;6214995;23;20008;-81
2023/01/24 01:49:54;;;;;;;0.80;0.50;;;10.00;83.70;;;;;;6214942;23;20000;-80
2023/01/24 01:52:22;;;;;;;1.02;0.68;;;10.00;83.90;;;;;;6214522;23;20418;-80
2023/01/24 01:54:49;;;;;;;0.50;0.50;;;10.00;84.00;;;;;;6214206;23;20001;-80
2023/01/24 01:57:22;;;;;;;0.82;0.47;;;10.00;83.90;;;;;;6215141;23;20028;-83
2023/01/24 02:00:03;;;;;;;0.90;0.50;;;10.00;83.70;;;;;;6214959;23;20012;-83
2023/01/24 02:02:31;;;;;;;0.68;0.57;;;9.90;83.70;;;;;;6214953;23;20039;-82
2023/01/24 02:05:01;;;;;;;0.38;0.32;;;10.00;83.90;;;;;;6214356;23;20004;-82
2023/01/24 02:07:49;;;;;;;1.23;0.52;;;9.90;84.10;;;;;;6215217;23;20019;-81
2023/01/24 02:10:19;;;;;;;0.40;0.40;;;9.90;84.10;;;;;;6214727;23;20007;-82
2023/01/24 02:12:47;;;;;;;0.57;0.45;;;9.90;84.10;;;;;;6214190;23;20003;-83
2023/01/24 02:18:08;;;;;;;0.55;0.50;;;9.80;83.90;;;;;;6214681;23;20101;-82
2023/01/24 02:20:45;;;;;;;1.00;0.40;;;9.80;83.80;;;;;;6215125;23;20075;-82
2023/01/24 02:23:30;;;;;;;0.50;0.40;;;9.80;83.60;;;;;;6213268;23;20079;-82
2023/01/24 02:26:09;;;;;;;0.43;0.40;;;9.80;83.80;;;;;;6214771;23;20008;-82
2023/01/24 02:28:36;;;;;;;0.32;0.28;;;9.80;83.70;;;;;;6214782;23;20028;-82
2023/01/24 02:31:03;;;;;;;0.50;0.40;;;9.80;83.80;;;;;;6214647;23;20000;-81
2023/01/24 02:33:30;;;;;;;0.60;0.40;;;9.70;83.90;;;;;;6214543;23;20484;-81
2023/01/24 02:36:15;;;;;;;0.40;0.40;;;9.70;84.00;;;;;;6214917;23;20024;-81
2023/01/24 02:38:44;;;;;;;0.93;0.52;;;9.70;84.00;;;;;;6213937;23;20100;-81
2023/01/24 02:41:11;;;;;;;0.50;0.40;;;9.70;83.90;;;;;;6214476;23;20365;-81
2023/01/24 02:43:44;;;;;;;1.20;0.57;;;9.70;83.90;;;;;;6214721;23;20020;-81
2023/01/24 02:46:10;;;;;;;0.65;0.47;;;9.70;84.00;;;;;;6214264;23;20005;-82
2023/01/24 02:48:35;;;;;;;1.00;0.65;;;9.70;84.10;;;;;;6215751;23;20054;-82
2023/01/24 02:53:45;;;;;;;0.52;0.45;;;9.70;84.00;;;;;;6217013;23;20086;-82
2023/01/24 02:59:00;;;;;;;0.68;0.40;;;9.70;83.90;;;;;;6147939;23;20016;-82
2023/01/24 03:01:25;;;;;;;1.15;0.50;;;9.70;84.00;;;;;;6216628;23;20004;-82
2023/01/24 03:03:52;;;;;;;0.80;0.43;;;9.60;83.90;;;;;;6217289;23;20004;-80
2023/01/24 03:06:18;;;;;;;2.25;0.93;;;9.60;84.30;;;;;;6217035;23;20032;-80
2023/01/24 03:08:44;;;;;;;1.13;0.50;;;9.60;83.70;;;;;;6216627;23;19997;-80
2023/01/24 03:11:11;;;;;;;0.52;0.50;;;9.60;84.00;;;;;;6216767;23;20011;-81
2023/01/24 03:35:34;;;;;;;0.93;0.73;;;9.40;84.40;;;;;;6216549;23;20139;-78
2023/01/24 03:40:44;;;;;;;1.63;1.00;;;9.40;84.60;;;;;;6216921;23;20059;-78
2023/01/24 03:43:10;;;;;;;0.95;0.70;;;9.40;84.60;;;;;;6216201;23;20000;-78
2023/01/24 03:45:38;;;;;;;0.63;0.60;;;9.40;84.60;;;;;;6215604;23;20358;-79
2023/01/24 03:48:15;;;;;;;1.05;0.80;;;9.40;84.70;;;;;;6215421;23;20366;-78
2023/01/24 03:53:30;;;;;;;1.23;0.82;;;9.40;84.80;;;;;;6216149;23;20035;-78
2023/01/24 03:56:01;;;;;;;1.95;0.90;;;9.30;84.40;;;;;;6215624;23;20028;-78
2023/01/24 03:58:28;;;;;;;0.90;0.80;;;9.20;84.50;;;;;;6215532;23;20016;-78
2023/01/24 04:00:55;;;;;;;2.92;0.80;;;9.20;84.70;;;;;;6216098;23;20001;-78
2023/01/24 04:03:21;;;;;;;1.40;0.80;;;9.20;85.20;;;;;;6215724;23;20004;-78
2023/01/24 04:05:48;;;;;;;2.22;1.17;;;9.20;85.30;;;;;;6215424;23;20076;-79
2023/01/24 04:08:14;;;;;;;1.98;0.90;;;9.20;85.50;;;;;;6215871;23;20007;-79
2023/01/24 04:10:40;;;;;;;1.80;0.77;;;9.10;85.40;;;;;;6216101;23;20001;-80
2023/01/24 04:13:05;;;;;;;1.77;0.93;;;9.00;85.70;;;;;;6216575;23;20429;-80
2023/01/24 04:15:32;;;;;;;2.08;1.00;;;8.90;85.70;;;;;;6215135;23;20453;-78
2023/01/24 04:18:00;;;;;;;0.85;0.80;;;8.90;85.80;;;;;;6216179;23;20350;-80
2023/01/24 04:20:28;;;;;;;1.98;0.90;;;9.00;85.90;;;;;;6216428;23;20454;-80
2023/01/24 04:22:54;;;;;;;1.17;0.77;;;9.00;85.90;;;;;;6215651;23;20004;-80
2023/01/24 04:25:23;;;;;;;1.73;1.10;;;;;;;;;;6215479;23;20007;-80
2023/01/24 04:28:02;;;;;;;1.58;1.00;;;;;;;;;;6188027;23;20001;-80
2023/01/24 04:30:44;;;;;;;0.82;0.60;;;;;;;;;;6215702;23;20004;-80
2023/01/24 04:33:25;;;;;;;1.42;0.80;;;;;;;;;;6216659;23;20001;-80
2023/01/24 04:35:51;;;;;;;1.45;0.90;;;;;;;;;;6189960;23;20005;-81
2023/01/24 04:38:17;;;;;;;1.20;0.73;;;;;;;;;;6189315;23;20027;-79
2023/01/24 04:40:43;;;;;;;0.82;0.63;;;8.80;85.90;;;;;;6189109;23;20005;-80
2023/01/24 04:43:09;;;;;;;1.60;0.93;;;8.80;86.10;;;;;;6215279;23;20001;-81
2023/01/24 04:45:35;;;;;;;2.75;0.93;;;8.80;86.60;;;;;;6214899;23;20000;-81
2023/01/24 04:48:00;;;;;;;1.45;0.75;;;8.80;86.70;;;;;;6215037;23;20080;-80
2023/01/24 04:50:26;;;;;;;1.02;0.80;;;8.70;86.30;;;;;;6214941;23;20028;-80
2023/01/24 04:52:52;;;;;;;1.40;1.00;;;8.80;86.80;;;;;;6215717;23;20055;-78
2023/01/24 04:55:17;;;;;;;1.80;1.10;;;8.80;86.80;;;;;;6215220;23;20042;-82
2023/01/24 04:57:43;;;;;;;1.80;1.13;;;;;;;;;;6216031;23;20072;-82
2023/01/24 05:00:10;;;;;;;1.88;1.20;;;8.80;86.30;;;;;;6215799;23;20455;-82
2023/01/24 05:02:37;;;;;;;2.78;1.17;;;8.70;86.70;;;;;;6215823;23;20003;-82
2023/01/24 05:05:04;;;;;;;2.55;1.20;;;8.70;87.00;;;;;;6215334;23;20004;-81
2023/01/24 05:07:29;;;;;;;1.63;0.88;;;8.70;86.70;;;;;;6217418;23;20063;-80
2023/01/24 05:09:55;;;;;;;4.20;1.20;;;8.70;87.10;;;;;;6215761;23;20040;-80
2023/01/24 05:12:21;;;;;;;1.42;0.93;;;8.70;87.10;;;;;;6214984;23;19997;-80
2023/01/24 05:14:46;;;;;;;1.67;0.95;;;8.60;87.10;;;;;;6215544;23;20005;-80
2023/01/24 05:17:12;;;;;;;1.55;0.90;;;8.70;87.10;;;;;;6215931;23;20004;-79
2023/01/24 05:19:38;;;;;;;1.70;1.10;;;8.60;87.00;;;;;;6216293;23;20008;-75
2023/01/24 05:22:04;;;;;;;1.88;1.23;;;8.60;87.10;;;;;;6215307;23;20392;-78
2023/01/24 05:24:29;;;;;;;1.92;0.95;;;8.60;87.20;;;;;;6216076;23;20004;-81
2023/01/24 05:26:55;;;;;;;3.08;1.45;;;8.60;87.30;;;;;;6215636;23;20096;-81
2023/01/24 05:29:21;;;;;;;1.40;1.00;;;8.60;87.40;;;;;;6215820;23;20026;-76
2023/01/24 05:31:47;;;;;;;1.50;1.10;;;;;;;;;;6214038;23;20000;-81
2023/01/24 05:34:13;;;;;;;1.15;0.98;;;9.00;87.10;;;;;;6214849;23;19996;-82
2023/01/24 05:36:38;;;;;;;1.30;0.90;;;8.60;87.30;;;;;;6213739;23;20790;-82
2023/01/24 05:39:04;;;;;;;1.63;1.20;;;8.60;87.30;;;;;;6188696;23;20021;-83
2023/01/24 05:41:30;;;;;;;3.08;1.20;;;8.60;87.30;;;;;;6214539;23;20320;-84
2023/01/24 05:43:56;;;;;;;2.25;0.90;;;8.60;87.30;;;;;;6189007;23;20333;-84
2023/01/24 05:46:22;;;;;;;1.40;1.00;;;8.60;87.30;;;;;;6214780;23;20005;-84
2023/01/24 05:48:48;;;;;;;1.50;1.08;;;8.60;87.40;;;;;;6215517;23;20303;-83
2023/01/24 05:51:16;;;;;;;2.38;1.40;;;8.60;87.40;;;;;;6215326;23;20044;-83
2023/01/24 05:53:43;;;;;;;2.00;1.10;;;8.60;87.10;;;;;;6214248;23;20072;-83
2023/01/24 05:56:15;;;;;;;1.33;0.90;;;8.60;87.10;;;;;;6188444;23;20019;-83
2023/01/24 05:58:42;;;;;;;1.23;0.85;;;8.60;87.50;;;;;;6213905;23;20008;-83
2023/01/24 06:01:19;;;;;;;2.38;1.52;;;8.50;87.10;;;;;;6214035;23;20005;-85
2023/01/24 06:03:48;;;;;;;1.15;0.95;;;8.50;87.10;;;;;;6214373;23;20010;-85
2023/01/24 06:06:16;;;;;;;2.30;1.50;;;8.50;87.60;;;;;;6213667;23;20306;-85
2023/01/24 06:08:42;;;;;;;1.65;1.20;;;8.50;87.60;;;;;;6215362;23;20068;-85
2023/01/24 06:11:23;;;;;;;1.60;1.20;;;8.40;87.10;;;;;;6214811;23;20504;-85
2023/01/24 06:13:49;;;;;;;1.95;1.30;;;8.40;87.20;;;;;;6214936;23;20074;-85
2023/01/24 06:16:23;;;;;;;1.13;0.80;;;8.40;87.60;;;;;;6212715;23;20345;-89
2023/01/24 06:18:50;;;;;;;1.45;1.08;;;8.40;87.50;;;;;;6215613;23;19997;-87
2023/01/24 06:21:25;;;;;;;2.00;1.17;;;8.40;87.00;;;;;;6214373;23;20079;-86
2023/01/24 06:23:51;;;;;;;1.65;0.90;;;8.40;87.10;;;;;;6188421;23;20008;-85
2023/01/24 06:26:17;;;;;;;1.70;1.20;;;8.40;87.50;;;;;;6213944;23;20043;-88
2023/01/24 06:28:43;;;;;;;1.85;1.25;;;8.40;87.40;;;;;;6215348;23;20032;-86
2023/01/24 06:31:27;;;;;;;2.40;1.50;;;8.40;86.90;;;;;;6215279;23;20003;-87
2023/01/24 06:34:15;;;;;;;1.98;1.30;;;8.40;86.80;;;;;;6189002;23;20001;-78
2023/01/24 06:37:02;;;;;;;1.67;1.15;;;8.40;87.50;;;;;;6215399;23;20008;-78
2023/01/24 06:39:28;;;;;;;3.38;1.20;;;8.50;87.30;;;;;;6215289;23;20528;-77
2023/01/24 06:41:54;;;;;;;2.28;1.27;;;8.50;86.90;;;;;;6215106;23;20079;-77
2023/01/24 06:44:20;;;;;;;3.55;1.40;;;8.50;87.20;;;;;;6215613;23;20032;-77
2023/01/24 06:46:46;;;;;;;3.17;1.40;;;8.50;86.80;;;;;;6215532;23;20026;-77
2023/01/24 06:49:11;;;;;;;3.17;1.50;;;8.50;87.20;;;;;;6188707;23;20423;-76
2023/01/24 06:51:37;;;;;;;2.90;1.25;;;8.50;87.10;;;;;;6215034;23;20007;-76
2023/01/24 06:54:03;;;;;;;1.63;1.30;;;8.50;86.60;;;;;;6215360;23;20004;-77
2023/01/24 06:56:29;;;;;;;2.08;1.50;;;8.50;87.00;;;;;;6215394;23;20009;-77
2023/01/24 06:58:54;;;;;;;3.13;1.50;;;8.50;86.50;;;;;;6215160;23;20005;-77
2023/01/24 07:01:20;;;;;;;2.13;1.05;;;8.50;86.90;;;;;;6214902;23;20009;-77
2023/01/24 07:03:46;;;;;;;2.17;1.73;;;8.60;86.80;;;;;;6188820;23;20055;-77
2023/01/24 07:06:11;;;;;;;1.50;0.95;;;8.60;86.30;;;;;;6214766;23;20004;-76
2023/01/24 07:08:37;;;;;;;1.65;1.17;;;8.60;86.70;;;;;;6215054;23;20046;-78
2023/01/24 07:11:03;;;;;;;5.55;1.60;;;8.50;86.60;;;;;;6215181;23;19997;-75
2023/01/24 07:13:29;;;;;;;2.13;1.30;;;;;;;;;;6214798;23;20302;-79
2023/01/24 07:15:54;;;;;;;1.85;1.38;;;8.60;86.90;;;;;;6215125;23;20011;-81
2023/01/24 07:18:20;;;;;;;2.88;1.52;;;8.60;87.10;;;;;;6215131;23;20005;-81
2023/01/24 07:20:46;;;;;;;1.95;1.45;;;8.70;86.10;;;;;;6215249;23;20080;-80
2023/01/24 07:23:24;;;;;;;2.15;1.30;;;8.70;86.50;;;;;;6205130;23;20058;-81
2023/01/24 07:25:51;;;;;;;2.35;1.20;;;8.70;86.90;;;;;;6212778;23;20004;-81
2023/01/24 07:28:17;;;;;;;1.95;1.17;;;8.70;85.70;;;;;;6213296;23;20075;-87
2023/01/24 07:30:45;;;;;;;1.85;1.50;;;8.80;86.00;;;;;;6213083;23;20707;-86
2023/01/24 07:33:12;;;;;;;2.25;1.48;;;8.80;85.60;;;;;;6185531;23;20000;-84
2023/01/24 07:35:39;;;;;;;2.08;1.48;;;8.80;86.10;;;;;;6213039;23;20009;-92
2023/01/24 07:38:05;;;;;;;2.47;1.55;;;8.90;85.50;;;;;;6216529;23;20035;-90
2023/01/24 07:40:31;;;;;;;2.63;1.80;;;8.90;85.70;;;;;;6217255;23;20004;-90
2023/01/24 07:43:01;;;;;;;2.88;1.70;;;8.90;85.70;;;;;;6217146;23;20033;-88
2023/01/24 07:45:28;;;;;;;3.97;1.73;;;8.90;85.60;;;;;;6217800;23;20046;-90
2023/01/24 07:47:56;;;;;;;3.65;1.80;;;8.90;85.20;;;;;;6216912;23;20001;-88
2023/01/24 07:50:22;;;;;;;2.45;1.60;;;8.90;85.60;;;;;;6216634;23;20327;-90
2023/01/24 07:52:55;;;;;;;2.80;1.73;;;;;;;;;;6189594;23;20012;-83
2023/01/24 07:55:21;;;;;;;4.30;1.88;;;8.90;85.20;;;;;;6216637;23;19997;-82
2023/01/24 07:57:48;;;;;;;4.07;1.77;;;8.90;85.20;;;;;;6216835;23;20413;-83
2023/01/24 08:00:14;;;;;;;5.43;2.20;;;8.90;85.40;;;;;;6190069;23;20001;-82
2023/01/24 08:02:41;;;;;;;3.53;2.42;;;8.80;85.40;;;;;;6216027;23;20076;-83
2023/01/24 08:05:07;;;;;;;3.55;1.85;;;8.90;85.50;;;;;;6216086;23;20372;-83
2023/01/24 08:07:33;;;;;;;3.03;1.98;;;8.90;85.50;;;;;;6216005;23;20027;-84
2023/01/24 08:09:58;;;;;;;3.45;1.77;;;8.90;85.50;;;;;;6216272;23;20017;-84
2023/01/24 08:12:24;;;;;;;3.20;1.92;;;8.90;85.00;;;;;;6217086;23;19997;-85
2023/01/24 08:14:50;;;;;;;2.30;1.60;;;9.00;85.40;;;;;;6218044;23;20000;-95
2023/01/24 08:17:16;;;;;;;4.80;1.85;;;9.10;85.40;;;;;;6218680;23;20001;-94
2023/01/24 08:19:42;;;;;;;4.43;2.08;;;9.10;85.30;;;;;;6217350;23;20001;-84
2023/01/24 08:22:08;;;;;;;3.55;1.98;;;9.10;85.20;;;;;;6217135;23;20005;-84
2023/01/24 08:24:33;;;;;;;3.92;1.92;;;9.20;85.20;;;;;;6216686;23;20004;-82
2023/01/24 08:27:01;;;;;;;2.60;1.77;;;9.20;85.10;;;;;;6215881;23;20035;-81
2023/01/24 08:29:26;;;;;;;2.75;1.85;;;9.20;85.00;;;;;;6215320;23;20088;-84
2023/01/24 08:31:52;;;;;;;3.78;2.38;;;9.30;85.10;;;;;;6218155;23;20032;-93
2023/01/24 08:34:18;;;;;;;1.70;1.58;;;9.30;85.00;;;;;;6191497;23;20051;-92
2023/01/24 08:36:44;;;;;;;3.15;2.03;;;9.40;84.80;;;;;;6191529;23;20008;-93
2023/01/24 08:39:09;;;;;;;2.75;1.90;;;9.50;84.70;;;;;;6192387;23;20017;-94
2023/01/24 08:41:35;;;;;;;3.80;1.80;;;9.50;84.60;;;;;;6192815;23;20375;-92
2023/01/24 08:44:02;;;;;;;4.05;2.00;;;9.60;84.70;;;;;;6217769;23;20012;-92
2023/01/24 08:46:28;;;;;;;3.50;1.90;;;9.70;84.50;;;;;;6217173;23;20457;-92
2023/01/24 08:48:54;;;;;;;3.65;2.08;;;9.80;84.40;;;;;;6219203;23;20012;-93
2023/01/24 08:51:20;;;;;;;4.72;2.22;;;9.90;83.40;;;;;;6221000;23;20003;-93
2023/01/24 08:53:45;;;;;;;2.53;1.90;;;10.00;83.60;;;;;;6191443;23;20001;-91
2023/01/24 08:56:12;;;;;;;3.67;2.03;;;10.10;83.50;;;;;;6219035;23;20008;-93
2023/01/24 08:58:37;;;;;;;3.03;2.05;;;10.20;83.60;;;;;;6218959;23;20335;-94
2023/01/24 09:01:07;;;;;;;3.70;1.85;;;10.30;83.10;;;;;;6219056;23;20004;-93
2023/01/24 09:03:33;;;;;;;2.88;1.80;;;10.40;82.60;;;;;;6215545;23;20008;-94
2023/01/24 09:05:59;;;;;;;4.90;1.98;;;10.60;82.60;;;;;;6191817;23;20012;-94
2023/01/24 09:08:25;;;;;;;5.50;1.90;;;10.70;82.80;;;;;;6217626;23;19997;-93
2023/01/24 09:10:51;;;;;;;3.58;1.95;;;10.90;82.50;;;;;;6217727;23;20007;-93
2023/01/24 09:13:17;;;;;;;2.72;1.52;;;11.00;80.00;;;;;;6192746;23;20233;-93
2023/01/24 09:15:43;;;;;;;3.05;1.95;;;11.10;80.70;;;;;;6219070;23;20005;-93
2023/01/24 09:18:09;;;;;;;2.20;1.38;;;11.30;81.10;;;;;;6190794;23;20379;-93
2023/01/24 09:20:35;;;;;;;4.40;1.85;;;11.40;80.40;;;;;;6217569;23;20001;-90
2023/01/24 09:23:09;;;;;;;3.13;1.55;;;11.60;80.40;;;;;;6217081;23;20008;-92
2023/01/24 09:25:35;;;;;;;2.72;1.80;;;11.80;82.40;;;;;;6217417;23;20084;-94
2023/01/24 09:28:00;;;;;;;2.72;1.50;;;12.00;84.00;;;;;;6217547;23;20060;-94
2023/01/24 09:30:26;;;;;;;2.15;1.67;;;12.20;83.50;;;;;;6218094;23;20007;-95
2023/01/24 09:32:52;;;;;;;2.60;1.92;;;12.30;82.00;;;;;;6218847;23;20055;-95
2023/01/24 09:35:17;;;;;;;2.30;1.60;;;12.30;78.70;;;;;;6217414;23;20011;-93
2023/01/24 09:37:44;;;;;;;1.75;1.42;;;12.10;77.50;;;;;;6216275;23;19997;-92
2023/01/24 09:40:24;;;;;;;2.95;2.00;;;12.00;78.80;;;;;;6216547;23;20011;-93
2023/01/24 09:43:00;;;;;;;1.85;1.50;;;11.90;78.80;;;;;;6216790;23;20011;-92
2023/01/24 09:45:49;;;;;;;2.83;1.67;;;11.80;78.80;;;;;;6191277;23;20001;-94
2023/01/24 09:48:18;;;;;;;3.28;2.03;;;11.80;79.10;;;;;;6220081;23;20001;-95
2023/01/24 09:50:59;;;;;;;3.17;1.95;;;11.80;77.40;;;;;;6220439;23;19997;-93
2023/01/24 09:53:37;;;;;;;1.60;1.40;;;11.70;78.50;;;;;;6219548;23;20035;-92
2023/01/24 09:56:05;;;;;;;2.30;1.50;;;11.70;78.60;;;;;;6219788;23;20059;-93
2023/01/24 09:58:43;;;;;;;1.92;1.33;;;11.70;78.00;;;;;;6217523;23;20000;-93
2023/01/24 10:01:12;;;;;;;4.03;1.73;;;11.70;78.30;;;;;;6218248;23;20005;-93
2023/01/24 10:03:39;;;;;;;4.30;2.08;;;11.70;78.70;;;;;;6190408;23;20036;-94
2023/01/24 10:06:18;;;;;;;2.40;1.55;;;11.70;77.20;;;;;;6216854;23;20446;-93
2023/01/24 10:09:12;;;;;;;2.03;1.27;;;11.50;77.60;;;;;;6216238;23;20431;-86
2023/01/24 10:12:01;;;;;;;3.50;1.48;;;11.50;78.50;;;;;;6215889;23;20011;-87
2023/01/24 10:15:07;;;;;;;1.63;1.23;;;11.60;79.30;;;;;;6215519;23;20031;-88
2023/01/24 10:17:55;;;;;;;2.08;1.23;;;11.70;79.30;;;;;;6215874;23;20005;-87
2023/01/24 10:20:49;;;;;;;1.35;1.15;;;11.90;78.40;;;;;;6215821;23;20041;-87
2023/01/24 10:23:16;;;;;;;2.53;1.67;;;11.90;78.30;;;;;;6215337;23;20079;-87
2023/01/24 10:25:56;;;;;;;2.10;1.60;;;11.90;77.10;;;;;;6215769;23;20031;-88
2023/01/24 10:28:42;;;;;;;3.45;1.38;;;11.90;77.80;;;;;;6215796;23;20000;-88
2023/01/24 10:31:14;;;;;;;2.08;1.50;;;11.90;77.70;;;;;;6187018;23;20019;-82
2023/01/24 10:33:47;;;;;;;2.70;1.58;;;12.00;77.90;;;;;;6215173;23;20466;-85
2023/01/24 10:36:24;;;;;;;1.92;1.40;;;12.10;77.90;;;;;;6215438;23;20001;-84
2023/01/24 10:38:50;;;;;;;1.95;1.65;;;12.20;77.20;;;;;;6214601;23;20573;-84
2023/01/24 10:41:16;;;;;;;7.88;2.00;;;12.30;77.40;;;;;;6188699;23;20009;-85
2023/01/24 10:43:45;;;;;;;6.32;1.73;;;12.40;79.10;;;;;;6214988;23;20031;-81
2023/01/24 10:46:34;;;;;;;2.40;1.75;;;12.40;78.20;;;;;;6214968;23;20000;-81
2023/01/24 10:49:01;;;;;;;2.35;1.40;;;12.50;76.80;;;;;;6214339;23;20366;-81
2023/01/24 10:51:27;;;;;;;1.42;1.20;;;12.50;76.80;;;;;;6214828;23;19996;-82
2023/01/24 10:54:00;;;;;;;2.80;1.77;;;12.40;76.60;;;;;;6215233;23;20007;-81
2023/01/24 10:56:25;;;;;;;2.55;1.60;;;12.40;77.00;;;;;;6214594;23;20008;-82
2023/01/24 10:59:12;;;;;;;3.33;1.50;;;12.50;76.60;;;;;;6214794;23;20370;-86
2023/01/24 11:01:49;;;;;;;2.20;1.48;;;12.40;74.80;;;;;;6215490;23;20092;-86
2023/01/24 11:04:27;;;;;;;2.83;1.73;;;12.40;75.60;;;;;;6215249;23;20009;-85
2023/01/24 11:06:53;;;;;;;2.25;1.40;;;12.40;75.10;;;;;;6215923;23;20446;-86
2023/01/24 11:09:29;;;;;;;2.05;1.50;;;12.50;76.00;;;;;;6216661;23;20072;-86
2023/01/24 11:11:57;;;;;;;1.65;1.17;;;12.60;74.90;;;;;;6216924;23;20314;-87
2023/01/24 11:14:25;;;;;;;1.65;1.52;;;12.70;75.10;;;;;;6217384;23;20000;-87
2023/01/24 11:16:56;;;;;;;2.40;1.67;;;12.60;73.70;;;;;;6217173;23;20015;-86
2023/01/24 11:19:32;;;;;;;1.67;1.17;;;12.60;74.50;;;;;;6216301;23;20000;-86
2023/01/24 11:22:00;;;;;;;1.30;1.02;;;12.60;74.60;;;;;;6215839;23;20032;-86
2023/01/24 11:24:28;;;;;;;2.03;1.13;;;12.60;73.70;;;;;;6215837;23;20473;-85
2023/01/24 11:27:14;;;;;;;1.33;1.08;;;12.70;74.70;;;;;;6214607;23;20047;-84
2023/01/24 11:29:40;;;;;;;3.28;0.90;;;12.90;74.00;;;;;;6215461;23;20425;-85
2023/01/24 11:32:35;;;;;;;1.20;1.05;;;13.00;74.00;;;;;;6189103;23;20001;-86
2023/01/24 11:35:10;;;;;;;1.33;1.10;;;13.20;74.60;;;;;;6215779;23;20004;-85
2023/01/24 11:37:48;;;;;;;1.80;0.95;;;13.30;73.80;;;;;;6187985;23;20062;-85
2023/01/24 11:40:34;;;;;;;1.38;1.05;;;13.40;73.20;;;;;;6186593;23;20013;-86
2023/01/24 11:43:29;;;;;;;2.20;1.42;;;13.60;73.30;;;;;;6186506;23;20055;-85
2023/01/24 11:46:14;;;;;;;1.77;1.20;;;13.60;72.80;;;;;;6182475;23;20008;-86
2023/01/24 11:48:51;;;;;;;1.30;1.10;;;13.70;72.40;;;;;;6185484;23;20001;-87
2023/01/24 11:51:40;;;;;;;1.50;1.40;;;13.60;71.60;;;;;;6185380;23;20434;-87
2023/01/24 11:54:06;;;;;;;1.70;1.13;;;13.60;72.10;;;;;;6184775;23;20311;-75
2023/01/24 11:56:59;;;;;;;1.98;1.23;;;13.80;72.80;;;;;;6158245;23;20011;-76
2023/01/24 11:59:54;;;;;;;2.25;1.52;;;14.00;70.80;;;;;;6183954;23;20185;-76
2023/01/24 12:02:49;;;;;;;2.28;1.73;;;14.10;71.10;;;;;;6184841;23;20005;-78
2023/01/24 12:05:42;;;;;;;4.82;1.80;;;14.20;71.40;;;;;;6185988;23;20012;-77
2023/01/24 12:08:11;;;;;;;3.88;1.65;;;14.40;70.30;;;;;;6159231;23;20012;-78
2023/01/24 12:10:59;;;;;;;2.47;1.63;;;14.50;70.40;;;;;;6184789;23;20053;-78
2023/01/24 12:13:44;;;;;;;1.95;0.93;;;14.70;70.20;;;;;;6185351;23;20005;-78
2023/01/24 12:16:42;;;;;;;2.05;1.40;;;15.00;69.40;;;;;;6159137;23;20021;-77
2023/01/24 12:19:34;;;;;;;2.50;1.20;;;15.20;66.80;;;;;;6184929;23;20344;-80
2023/01/24 12:22:01;;;;;;;2.20;1.77;;;15.40;68.10;;;;;;6185864;23;20028;-87
2023/01/24 12:24:31;;;;;;;1.83;1.52;;;15.50;66.90;;;;;;6158671;23;20005;-88
2023/01/24 12:27:06;;;;;;;2.72;1.90;;;15.50;66.80;;;;;;6186533;23;20008;-87
2023/01/24 12:30:01;;;;;;;2.38;1.63;;;15.30;66.50;;;;;;6186165;23;20001;-87
2023/01/24 12:32:27;;;;;;;1.73;1.48;;;15.10;66.90;;;;;;6137950;23;20032;-77
2023/01/24 12:35:17;;;;;;;2.20;1.52;;;15.20;67.90;;;;;;6182928;23;20392;-76
2023/01/24 12:38:13;;;;;;;2.78;1.98;;;15.30;67.50;;;;;;6184469;23;20004;-77
2023/01/24 12:40:53;;;;;;;2.55;1.88;;;15.40;65.90;;;;;;6214195;23;20516;-77
2023/01/24 12:43:34;;;;;;;2.45;1.60;;;15.50;66.00;;;;;;6214537;23;20004;-77
2023/01/24 12:46:26;;;;;;;1.67;1.50;;;15.60;65.80;;;;;;6213762;23;20005;-76
2023/01/24 12:49:09;;;;;;;1.90;1.58;;;15.70;65.30;;;;;;6210916;23;20020;-77
2023/01/24 12:51:53;;;;;;;2.08;1.77;;;15.80;66.20;;;;;;6214067;23;20076;-77
2023/01/24 12:54:25;;;;;;;2.55;1.63;;;15.80;65.00;;;;;;6212531;23;20001;-78
2023/01/24 12:57:15;;;;;;;2.50;1.85;;;15.60;65.20;;;;;;6214022;23;20001;-78
2023/01/24 12:59:41;;;;;;;3.40;1.80;;;15.60;66.00;;;;;;6212690;23;20307;-78
2023/01/24 13:02:24;;;;;;;3.22;2.00;;;15.30;65.50;;;;;;6213347;23;20111;-78
2023/01/24 13:04:59;;;;;;;2.97;1.80;;;15.10;66.40;;;;;;6212404;23;20009;-85
2023/01/24 13:07:33;;;;;;;3.30;1.65;;;14.90;67.10;;;;;;6213788;23;20326;-85
2023/01/24 13:10:19;;;;;;;3.05;1.90;;;14.80;67.30;;;;;;6188176;23;20337;-87
2023/01/24 13:12:46;;;;;;;2.40;1.70;;;14.50;67.50;;;;;;6215209;23;20319;-86
2023/01/24 13:15:20;;;;;;;4.97;2.20;;;14.40;68.30;;;;;;6214341;23;20004;-87
2023/01/24 13:18:14;;;;;;;1.98;1.55;;;14.40;68.00;;;;;;6213412;23;20004;-87
2023/01/24 13:20:51;;;;;;;2.00;1.63;;;14.20;68.70;;;;;;6212540;23;20076;-77
2023/01/24 13:23:48;;;;;;;1.90;1.52;;;14.20;69.10;;;;;;6211567;23;20032;-77
2023/01/24 13:26:27;;;;;;;2.65;1.60;;;14.20;69.60;;;;;;6213850;23;20006;-76
2023/01/24 13:29:11;;;;;;;2.05;1.60;;;14.30;69.70;;;;;;6212906;23;20005;-77
2023/01/24 13:32:03;;;;;;;3.35;1.80;;;14.30;69.30;;;;;;6214098;23;19996;-77
2023/01/24 13:34:36;;;;;;;2.60;1.70;;;14.30;68.60;;;;;;6213734;23;20005;-77
2023/01/24 13:37:04;;;;;;;1.98;1.50;;;14.10;68.40;;;;;;6213986;23;20005;-77
2023/01/24 13:39:42;;;;;;;1.77;1.33;;;13.80;68.40;;;;;;6213035;23;20059;-78
2023/01/24 13:42:35;;;;;;;2.05;1.42;;;13.70;69.30;;;;;;6213865;23;20005;-77
2023/01/24 13:45:23;;;;;;;2.47;1.40;;;13.60;69.80;;;;;;6186613;23;20453;-78
2023/01/24 13:47:50;;;;;;;1.92;1.73;;;13.70;70.80;;;;;;6213636;23;20031;-87
2023/01/24 13:50:17;;;;;;;2.13;1.70;;;13.70;69.70;;;;;;6214631;23;20001;-88
2023/01/24 13:52:51;;;;;;;1.55;1.45;;;13.70;70.20;;;;;;6188479;23;20001;-87